createdAt,value
2019-02-23T00:00:12.599Z,31.17
2019-02-23T00:02:45.612Z,47.47
2019-02-23T00:05:19.130Z,35.23
2019-02-23T00:07:52.680Z,40.73
2019-02-23T00:10:26.241Z,53.67
2019-02-23T00:13:02.712Z,35.40
2019-02-23T00:15:38.120Z,32.60
2019-02-23T00:18:12.849Z,36.07
2019-02-23T00:20:46.290Z,48.53
2019-02-23T00:23:22.147Z,36.47
2019-02-23T00:25:55.585Z,38.20
2019-02-23T00:28:29.045Z,36.20
2019-02-23T00:34:30.786Z,30.20
2019-02-23T00:37:04.228Z,36.17
2019-02-23T00:39:37.775Z,34.30
2019-02-23T00:42:11.215Z,29.90
2019-02-23T00:44:44.909Z,32.10
2019-02-23T00:47:18.352Z,33.70
2019-02-23T00:49:51.821Z,38.80
2019-02-23T00:52:27.397Z,34.50
2019-02-23T00:55:00.923Z,35.93
2019-02-23T00:57:34.393Z,31.30
2019-02-23T01:00:10.403Z,36.73
2019-02-23T01:02:43.878Z,34.13
2019-02-23T01:05:17.454Z,40.20
2019-02-23T01:07:53.416Z,41.57
2019-02-23T01:10:26.971Z,38.47
2019-02-23T01:13:02.184Z,42.63
2019-02-23T01:15:35.633Z,39.23
2019-02-23T01:18:13.363Z,40.63
2019-02-23T01:20:49.609Z,38.40
2019-02-23T01:23:24.773Z,44.00
2019-02-23T01:25:58.277Z,36.07
2019-02-23T01:28:31.773Z,45.07
2019-02-23T01:31:06.961Z,48.97
2019-02-23T01:33:40.470Z,47.03
2019-02-23T01:36:17.082Z,38.47
2019-02-23T01:38:52.276Z,44.43
2019-02-23T01:41:25.754Z,45.67
2019-02-23T01:44:00.562Z,36.90
2019-02-23T01:46:35.598Z,41.97
2019-02-23T01:49:09.170Z,48.60
2019-02-23T01:54:44.375Z,40.83
2019-02-23T01:57:17.844Z,40.53
2019-02-23T01:59:51.413Z,40.30
2019-02-23T02:02:24.890Z,37.70
2019-02-23T02:04:58.378Z,42.77
2019-02-23T02:07:37.970Z,40.43
2019-02-23T02:10:15.044Z,37.47
2019-02-23T02:12:50.145Z,44.27
2019-02-23T02:15:29.785Z,32.40
2019-02-23T02:18:05.917Z,36.73
2019-02-23T02:20:39.430Z,28.77
2019-02-23T02:23:12.868Z,28.70
2019-02-23T02:25:46.344Z,28.03
2019-02-23T02:28:19.781Z,32.87
2019-02-23T02:30:59.432Z,29.93
2019-02-23T02:33:32.921Z,37.00
2019-02-23T02:36:08.147Z,40.63
2019-02-23T02:38:41.662Z,33.20
2019-02-23T02:41:16.913Z,35.97
2019-02-23T02:43:50.639Z,38.87
2019-02-23T02:46:25.765Z,40.27
2019-02-23T02:48:59.244Z,34.47
2019-02-23T02:51:33.003Z,39.97
2019-02-23T02:54:06.604Z,45.67
2019-02-23T02:56:41.212Z,47.97
2019-02-23T02:59:17.741Z,39.13
2019-02-23T03:01:52.847Z,44.60
2019-02-23T03:04:29.304Z,44.80
2019-02-23T03:07:06.369Z,46.63
2019-02-23T03:09:39.955Z,49.57
2019-02-23T03:12:13.460Z,47.77
2019-02-23T03:14:47.036Z,49.03
2019-02-23T03:17:23.266Z,51.57
2019-02-23T03:19:58.479Z,50.53
2019-02-23T03:22:32.053Z,38.03
2019-02-23T03:25:07.749Z,44.70
2019-02-23T03:27:41.282Z,43.63
2019-02-23T03:30:14.928Z,52.73
2019-02-23T03:32:48.360Z,48.10
2019-02-23T03:35:21.800Z,42.27
2019-02-23T03:37:55.285Z,37.87
2019-02-23T03:40:28.769Z,39.37
2019-02-23T03:43:04.263Z,43.97
2019-02-23T03:45:37.388Z,38.60
2019-02-23T03:48:14.482Z,44.33
2019-02-23T03:50:49.499Z,44.57
2019-02-23T03:53:23.206Z,44.50
2019-02-23T03:55:56.831Z,39.07
2019-02-23T03:58:30.433Z,36.80
2019-02-23T04:01:05.641Z,42.97
2019-02-23T04:03:41.035Z,39.13
2019-02-23T04:06:18.862Z,35.17
2019-02-23T04:08:52.425Z,35.87
2019-02-23T04:11:27.489Z,43.50
2019-02-23T04:14:02.709Z,37.90
2019-02-23T04:16:36.242Z,43.47
2019-02-23T04:19:14.979Z,39.47
2019-02-23T04:21:51.718Z,39.83
2019-02-23T04:24:25.289Z,40.60
2019-02-23T04:27:01.587Z,41.53
2019-02-23T04:29:40.261Z,37.97
2019-02-23T04:32:16.179Z,38.83
2019-02-23T04:34:49.689Z,44.40
2019-02-23T04:37:27.620Z,41.13
2019-02-23T04:40:01.115Z,48.37
2019-02-23T04:42:37.837Z,48.17
2019-02-23T04:45:12.988Z,43.93
2019-02-23T04:47:46.424Z,54.17
2019-02-23T04:50:19.944Z,55.20
2019-02-23T04:52:53.408Z,48.67
2019-02-23T04:55:32.886Z,60.80
2019-02-23T04:58:06.398Z,60.97
2019-02-23T05:00:39.889Z,51.40
2019-02-23T05:03:14.393Z,49.70
2019-02-23T05:05:49.546Z,39.43
2019-02-23T05:08:23.006Z,39.17
2019-02-23T05:10:56.520Z,48.00
2019-02-23T05:13:29.958Z,58.63
2019-02-23T05:16:03.430Z,63.77
2019-02-23T05:18:36.899Z,70.90
2019-02-23T05:21:10.425Z,85.53
2019-02-23T05:23:43.850Z,75.50
2019-02-23T05:26:17.289Z,73.43
2019-02-23T05:28:50.783Z,66.87
2019-02-23T05:31:26.983Z,72.17
2019-02-23T05:34:00.500Z,73.27
2019-02-23T05:36:37.233Z,58.23
2019-02-23T05:39:13.452Z,55.23
2019-02-23T05:41:46.957Z,51.77
2019-02-23T05:44:22.111Z,50.73
2019-02-23T05:46:55.567Z,54.70
2019-02-23T05:49:29.072Z,55.87
2019-02-23T05:52:02.544Z,60.23
2019-02-23T05:54:37.279Z,50.57
2019-02-23T05:57:10.953Z,54.43
2019-02-23T05:59:45.467Z,62.33
2019-02-23T06:02:18.859Z,50.00
2019-02-23T06:04:52.324Z,56.80
2019-02-23T06:07:25.750Z,47.90
2019-02-23T06:09:59.226Z,48.97
2019-02-23T06:12:32.665Z,48.27
2019-02-23T06:15:09.446Z,71.33
2019-02-23T06:17:42.873Z,65.80
2019-02-23T06:20:16.333Z,79.87
2019-02-23T06:22:49.774Z,73.83
2019-02-23T06:25:23.243Z,65.13
2019-02-23T06:27:56.785Z,68.83
2019-02-23T06:30:30.375Z,62.03
2019-02-23T06:33:03.824Z,56.30
2019-02-23T06:35:37.256Z,54.83
2019-02-23T06:38:10.730Z,59.27
2019-02-23T06:40:44.240Z,58.50
2019-02-23T06:43:17.676Z,60.33
2019-02-23T06:45:51.150Z,61.17
2019-02-23T06:48:24.575Z,68.43
2019-02-23T06:50:58.041Z,73.87
2019-02-23T06:53:31.483Z,86.70
2019-02-23T06:56:05.087Z,72.27
2019-02-23T06:58:38.535Z,81.60
2019-02-23T07:01:12.120Z,92.27
2019-02-23T07:03:45.734Z,79.47
2019-02-23T07:06:19.159Z,85.37
2019-02-23T07:08:52.650Z,84.00
2019-02-23T07:11:26.144Z,77.83
2019-02-23T07:14:01.209Z,75.63
2019-02-23T07:19:31.964Z,67.17
2019-02-23T07:22:15.185Z,83.47
2019-02-23T07:24:40.537Z,80.03
2019-02-23T07:27:15.589Z,74.13
2019-02-23T07:29:49.067Z,68.03
2019-02-23T07:32:22.547Z,72.27
2019-02-23T07:34:55.979Z,62.60
2019-02-23T07:37:29.497Z,64.10
2019-02-23T07:40:02.925Z,62.47
2019-02-23T07:42:36.384Z,54.50
2019-02-23T07:45:10.568Z,54.83
2019-02-23T07:47:44.031Z,49.07
2019-02-23T07:50:17.543Z,42.83
2019-02-23T07:52:54.761Z,44.83
2019-02-23T07:55:28.185Z,35.47
2019-02-23T07:58:01.682Z,39.73
2019-02-23T08:00:35.129Z,37.20
2019-02-23T08:03:08.619Z,37.77
2019-02-23T08:05:42.053Z,35.60
2019-02-23T08:08:15.533Z,38.27
2019-02-23T08:10:48.976Z,38.33
2019-02-23T08:13:22.446Z,34.87
2019-02-23T08:15:55.901Z,34.13
2019-02-23T08:18:29.330Z,25.50
2019-02-23T08:21:02.809Z,23.57
2019-02-23T08:23:36.232Z,23.40
2019-02-23T08:26:09.701Z,24.57
2019-02-23T08:28:43.134Z,27.87
2019-02-23T08:31:16.590Z,29.43
2019-02-23T08:33:55.980Z,29.73
2019-02-23T08:36:30.444Z,29.67
2019-02-23T08:39:04.668Z,32.40
2019-02-23T08:41:38.538Z,25.93
2019-02-23T08:44:12.121Z,25.10
2019-02-23T08:46:45.699Z,26.13
2019-02-23T08:49:20.021Z,29.20
2019-02-23T08:51:53.448Z,20.30
2019-02-23T08:54:28.195Z,22.20
2019-02-23T08:57:02.316Z,22.77
2019-02-23T08:59:35.743Z,21.33
2019-02-23T09:02:09.222Z,21.37
2019-02-23T09:04:42.667Z,22.57
2019-02-23T09:07:16.165Z,25.77
2019-02-23T09:09:49.593Z,23.33
2019-02-23T09:12:23.071Z,25.27
2019-02-23T09:14:56.505Z,25.33
2019-02-23T09:17:29.987Z,25.40
2019-02-23T09:20:04.061Z,24.27
2019-02-23T09:22:37.582Z,22.27
2019-02-23T09:25:11.394Z,19.90
2019-02-23T09:27:44.904Z,25.73
2019-02-23T09:30:18.336Z,22.00
2019-02-23T09:32:51.808Z,21.03
2019-02-23T09:35:25.242Z,21.40
2019-02-23T09:37:59.673Z,19.83
2019-02-23T09:40:33.142Z,21.23
2019-02-23T09:43:06.577Z,21.53
2019-02-23T09:45:41.654Z,21.37
2019-02-23T09:48:15.085Z,24.73
2019-02-23T09:50:49.588Z,23.53
2019-02-23T09:53:23.008Z,18.17
2019-02-23T09:55:56.462Z,19.13
2019-02-23T09:58:31.258Z,18.57
2019-02-23T10:01:04.853Z,16.60
2019-02-23T10:03:38.280Z,17.27
2019-02-23T10:06:11.788Z,17.10
2019-02-23T10:08:45.301Z,18.97
2019-02-23T10:11:18.775Z,13.00
2019-02-23T10:13:52.208Z,18.10
2019-02-23T10:16:25.684Z,15.97
2019-02-23T10:18:59.126Z,17.27
2019-02-23T10:21:32.634Z,17.47
2019-02-23T10:24:06.061Z,16.73
2019-02-23T10:26:39.545Z,15.47
2019-02-23T10:29:13.006Z,14.77
2019-02-23T10:31:46.461Z,14.10
2019-02-23T10:34:19.945Z,14.67
2019-02-23T10:36:53.399Z,14.07
2019-02-23T10:39:26.873Z,14.40
2019-02-23T10:42:00.335Z,14.23
2019-02-23T10:44:33.817Z,15.50
2019-02-23T10:47:07.248Z,14.87
2019-02-23T10:49:40.729Z,13.07
2019-02-23T10:52:14.139Z,14.63
2019-02-23T10:54:47.652Z,12.97
2019-02-23T10:57:21.398Z,15.57
2019-02-23T10:59:54.916Z,14.37
2019-02-23T11:02:28.345Z,11.70
2019-02-23T11:05:01.869Z,14.03
2019-02-23T11:07:35.312Z,14.00
2019-02-23T11:10:09.499Z,16.73
2019-02-23T11:12:42.928Z,14.13
2019-02-23T11:15:18.039Z,15.37
2019-02-23T11:17:56.277Z,18.97
2019-02-23T11:20:29.893Z,15.73
2019-02-23T11:23:03.429Z,17.00
2019-02-23T11:25:36.788Z,14.33
2019-02-23T11:28:10.250Z,13.53
2019-02-23T11:30:43.714Z,13.63
2019-02-23T11:33:18.812Z,13.27
2019-02-23T11:35:53.616Z,11.97
2019-02-23T11:38:27.066Z,13.90
2019-02-23T11:41:00.500Z,11.40
2019-02-23T11:43:33.953Z,14.50
2019-02-23T11:46:07.423Z,16.00
2019-02-23T11:48:40.861Z,13.83
2019-02-23T11:51:14.341Z,14.53
2019-02-23T11:53:54.630Z,13.80
2019-02-23T11:56:22.885Z,11.57
2019-02-23T11:58:56.350Z,14.20
2019-02-23T12:01:29.852Z,16.63
2019-02-23T12:04:04.329Z,15.17
2019-02-23T12:06:37.860Z,14.80
2019-02-23T12:09:11.327Z,15.73
2019-02-23T12:11:44.769Z,13.60
2019-02-23T12:14:18.226Z,14.13
2019-02-23T12:16:51.724Z,15.93
2019-02-23T12:19:25.175Z,15.30
2019-02-23T12:21:58.648Z,14.93
2019-02-23T12:24:32.108Z,15.97
2019-02-23T12:27:05.518Z,14.97
2019-02-23T12:29:38.995Z,13.93
2019-02-23T12:32:12.427Z,12.00
2019-02-23T12:34:45.911Z,13.87
2019-02-23T12:37:19.326Z,12.10
2019-02-23T12:39:52.810Z,15.40
2019-02-23T12:42:27.693Z,14.67
2019-02-23T12:45:01.318Z,13.97
2019-02-23T12:47:34.777Z,15.47
2019-02-23T12:50:12.664Z,15.37
2019-02-23T12:52:46.147Z,14.17
2019-02-23T12:55:19.660Z,14.37
2019-02-23T12:57:53.128Z,11.77
2019-02-23T13:00:26.563Z,17.33
2019-02-23T13:03:00.021Z,12.90
2019-02-23T13:05:33.534Z,14.40
2019-02-23T13:08:08.622Z,11.60
2019-02-23T13:10:42.642Z,12.30
2019-02-23T13:13:45.169Z,14.60
2019-02-23T13:16:25.153Z,14.83
2019-02-23T13:19:35.175Z,14.97
2019-02-23T13:22:14.731Z,13.23
2019-02-23T13:25:02.386Z,15.10
2019-02-23T13:27:55.565Z,15.40
2019-02-23T13:30:46.655Z,13.50
2019-02-23T13:33:38.321Z,15.80
2019-02-23T13:36:17.606Z,15.30
2019-02-23T13:39:13.917Z,14.33
2019-02-23T13:41:53.463Z,14.77
2019-02-23T13:44:50.534Z,14.87
2019-02-23T13:47:54.374Z,16.33
2019-02-23T13:50:31.082Z,15.73
2019-02-23T13:53:39.696Z,14.37
2019-02-23T13:56:33.031Z,14.33
2019-02-23T13:59:09.764Z,14.57
2019-02-23T14:02:10.803Z,14.43
2019-02-23T14:05:03.918Z,17.87
2019-02-23T14:07:46.614Z,13.73
2019-02-23T14:10:46.009Z,15.33
2019-02-23T14:13:41.173Z,15.37
2019-02-23T14:16:29.977Z,14.70
2019-02-23T14:19:12.663Z,14.63
2019-02-23T14:22:22.607Z,13.73
2019-02-23T14:25:18.997Z,13.00
2019-02-23T14:28:07.441Z,12.37
2019-02-23T14:30:52.720Z,13.93
2019-02-23T14:33:47.293Z,14.03
2019-02-23T14:36:29.974Z,10.70
2019-02-23T14:39:25.116Z,14.90
2019-02-23T14:42:13.474Z,14.03
2019-02-23T14:45:10.100Z,13.23
2019-02-23T14:48:14.168Z,14.70
2019-02-23T14:51:19.942Z,16.60
2019-02-23T14:54:11.096Z,14.83
2019-02-23T14:57:09.001Z,15.60
2019-02-23T15:00:00.516Z,18.23
2019-02-23T15:02:49.108Z,14.13
2019-02-23T15:05:41.004Z,17.57
2019-02-23T15:08:26.810Z,17.80
2019-02-23T15:11:03.564Z,16.97
2019-02-23T15:14:04.275Z,22.77
2019-02-23T15:16:52.654Z,15.23
2019-02-23T15:19:48.903Z,12.77
2019-02-23T15:22:31.231Z,16.53
2019-02-23T15:25:19.850Z,16.13
2019-02-23T15:28:02.446Z,19.13
2019-02-23T15:30:41.867Z,14.90
2019-02-23T15:33:24.424Z,18.87
2019-02-23T15:36:15.797Z,18.13
2019-02-23T15:39:15.029Z,17.60
2019-02-23T15:42:19.353Z,15.27
2019-02-23T15:45:11.408Z,13.67
2019-02-23T15:48:09.397Z,20.03
2019-02-23T15:50:42.870Z,21.57
2019-02-23T15:53:16.322Z,17.73
2019-02-23T15:55:49.756Z,18.37
2019-02-23T15:58:23.217Z,16.27
2019-02-23T16:01:01.182Z,18.03
2019-02-23T16:03:34.651Z,15.53
2019-02-23T16:06:08.080Z,16.07
2019-02-23T16:08:41.537Z,24.47
2019-02-23T16:11:15.013Z,22.43
2019-02-23T16:13:48.545Z,20.07
2019-02-23T16:16:24.976Z,19.93
2019-02-23T16:19:00.050Z,19.50
2019-02-23T16:21:33.492Z,21.90
2019-02-23T16:24:07.095Z,25.43
2019-02-23T16:26:40.677Z,33.83
2019-02-23T16:29:14.265Z,30.90
2019-02-23T16:31:47.718Z,34.73
2019-02-23T16:34:21.183Z,35.10
2019-02-23T16:36:54.694Z,39.30
2019-02-23T16:39:29.101Z,33.10
2019-02-23T16:42:02.524Z,30.07
2019-02-23T16:44:35.965Z,20.30
2019-02-23T16:47:09.449Z,17.50
2019-02-23T16:49:42.893Z,16.50
2019-02-23T16:52:16.353Z,21.53
2019-02-23T16:54:50.944Z,24.93
2019-02-23T16:57:24.427Z,24.47
2019-02-23T16:59:57.891Z,22.93
2019-02-23T17:02:31.339Z,26.30
2019-02-23T17:05:06.858Z,26.10
2019-02-23T17:07:40.333Z,33.60
2019-02-23T17:10:13.804Z,52.17
2019-02-23T17:12:47.248Z,36.70
2019-02-23T17:15:20.753Z,54.37
2019-02-23T17:17:54.182Z,55.27
2019-02-23T17:20:27.658Z,54.90
2019-02-23T17:23:02.253Z,60.53
2019-02-23T17:25:35.867Z,60.37
2019-02-23T17:28:09.375Z,61.67
2019-02-23T17:30:42.807Z,70.50
2019-02-23T17:33:16.354Z,64.63
2019-02-23T17:35:49.802Z,62.53
2019-02-23T17:38:23.384Z,65.07
2019-02-23T17:40:56.786Z,65.33
2019-02-23T17:43:31.881Z,76.60
2019-02-23T17:46:05.332Z,77.83
2019-02-23T17:48:38.844Z,62.90
2019-02-23T17:51:13.935Z,56.03
2019-02-23T17:53:47.481Z,53.60
2019-02-23T17:56:20.954Z,69.87
2019-02-23T17:58:54.432Z,71.20
2019-02-23T18:01:32.372Z,76.80
2019-02-23T18:04:05.927Z,82.37
2019-02-23T18:06:39.412Z,93.47
2019-02-23T18:09:12.956Z,73.40
2019-02-23T18:11:46.713Z,60.57
2019-02-23T18:14:20.428Z,42.20
2019-02-23T18:16:53.998Z,44.93
2019-02-23T18:19:27.622Z,44.03
2019-02-23T18:22:03.533Z,70.20
2019-02-23T18:24:46.829Z,62.90
2019-02-23T18:27:45.090Z,60.07
2019-02-23T18:30:14.352Z,64.57
2019-02-23T18:32:47.939Z,61.43
2019-02-23T18:35:21.480Z,61.73
2019-02-23T18:37:54.980Z,57.97
2019-02-23T18:40:29.130Z,63.87
2019-02-23T18:43:02.860Z,70.43
2019-02-23T18:45:37.687Z,69.23
2019-02-23T18:48:11.382Z,78.60
2019-02-23T18:50:44.990Z,74.30
2019-02-23T18:53:18.551Z,77.13
2019-02-23T18:55:52.162Z,78.77
2019-02-23T18:58:25.845Z,67.83
2019-02-23T19:00:59.317Z,73.77
2019-02-23T19:03:32.822Z,67.23
2019-02-23T19:06:06.310Z,61.00
2019-02-23T19:08:40.967Z,57.20
2019-02-23T19:11:16.155Z,64.07
2019-02-23T19:13:49.624Z,66.33
2019-02-23T19:16:24.978Z,67.30
2019-02-23T19:18:58.560Z,63.70
2019-02-23T19:21:32.073Z,71.17
2019-02-23T19:24:05.543Z,69.13
2019-02-23T19:26:41.182Z,74.83
2019-02-23T19:29:14.622Z,65.40
2019-02-23T19:31:49.855Z,78.77
2019-02-23T19:34:23.381Z,74.50
2019-02-23T19:36:56.852Z,72.57
2019-02-23T19:39:30.579Z,75.60
2019-02-23T19:42:04.169Z,77.07
2019-02-23T19:44:37.642Z,70.30
2019-02-23T19:47:11.370Z,80.37
2019-02-23T19:49:47.541Z,75.63
2019-02-23T19:52:20.978Z,78.67
2019-02-23T19:54:54.443Z,74.53
2019-02-23T19:57:27.908Z,70.13
2019-02-23T20:00:01.375Z,69.27
2019-02-23T20:02:34.858Z,65.77
2019-02-23T20:05:09.672Z,68.73
2019-02-23T20:07:43.746Z,59.63
2019-02-23T20:10:17.204Z,60.83
2019-02-23T20:12:50.711Z,66.27
2019-02-23T20:15:24.218Z,71.90
2019-02-23T20:17:57.801Z,64.57
2019-02-23T20:20:31.304Z,65.33
2019-02-23T20:23:04.747Z,75.37
2019-02-23T20:25:38.214Z,61.97
2019-02-23T20:28:11.670Z,60.17
2019-02-23T20:30:45.157Z,61.00
2019-02-23T20:33:19.105Z,68.27
2019-02-23T20:35:52.693Z,67.63
2019-02-23T20:38:27.970Z,64.73
2019-02-23T20:41:01.441Z,75.10
2019-02-23T20:43:35.011Z,69.83
2019-02-23T20:46:08.452Z,66.57
2019-02-23T20:48:43.570Z,64.83
2019-02-23T20:51:17.155Z,68.93
2019-02-23T20:53:50.609Z,67.83
2019-02-23T20:56:24.040Z,72.00
2019-02-23T20:58:57.528Z,67.43
2019-02-23T21:01:30.957Z,74.33
2019-02-23T21:04:04.453Z,64.50
2019-02-23T21:06:42.306Z,68.70
2019-02-23T21:09:18.678Z,65.20
2019-02-23T21:11:52.152Z,60.33
2019-02-23T21:14:25.661Z,61.00
2019-02-23T21:16:59.081Z,61.27
2019-02-23T21:19:32.512Z,58.83
2019-02-23T21:22:05.968Z,59.17
2019-02-23T21:24:39.461Z,54.17
2019-02-23T21:27:13.343Z,67.67
2019-02-23T21:29:47.032Z,67.13
2019-02-23T21:32:20.464Z,60.70
2019-02-23T21:34:53.936Z,64.47
2019-02-23T21:37:27.650Z,81.73
2019-02-23T21:40:01.461Z,90.83
2019-02-23T21:42:34.880Z,91.90
2019-02-23T21:45:08.988Z,106.27
2019-02-23T21:47:42.497Z,93.27
2019-02-23T21:50:15.929Z,104.13
2019-02-23T21:52:49.413Z,116.80
2019-02-23T21:55:22.862Z,97.50
2019-02-23T21:57:56.328Z,102.40
2019-02-23T22:00:33.005Z,102.67
2019-02-23T22:03:10.408Z,97.67
2019-02-23T22:05:43.976Z,99.00
2019-02-23T22:08:23.265Z,105.30
2019-02-23T22:10:56.810Z,104.40
2019-02-23T22:13:30.289Z,102.43
2019-02-23T22:16:04.384Z,100.07
2019-02-23T22:18:37.996Z,111.93
2019-02-23T22:21:11.610Z,104.57
2019-02-23T22:23:45.072Z,104.40
2019-02-23T22:26:23.251Z,111.73
2019-02-23T22:28:56.806Z,104.67
2019-02-23T22:31:33.086Z,102.40
2019-02-23T22:34:07.823Z,107.57
2019-02-23T22:36:54.208Z,100.63
2019-02-23T22:39:31.741Z,98.60
2019-02-23T22:42:07.471Z,95.63
2019-02-23T22:44:40.997Z,105.67
2019-02-23T22:47:14.525Z,101.30
2019-02-23T22:49:48.016Z,97.13
2019-02-23T22:52:21.517Z,106.27
2019-02-23T22:54:56.837Z,110.20
2019-02-23T22:57:30.288Z,106.60
2019-02-23T23:00:03.754Z,111.63
2019-02-23T23:02:37.200Z,115.97
2019-02-23T23:05:12.386Z,123.80
2019-02-23T23:07:45.830Z,134.10
2019-02-23T23:10:19.338Z,124.07
2019-02-23T23:12:55.685Z,126.53
2019-02-23T23:15:31.333Z,122.97
2019-02-23T23:18:04.804Z,108.27
2019-02-23T23:20:38.280Z,100.00
2019-02-23T23:23:11.884Z,100.13
2019-02-23T23:25:47.408Z,108.53
2019-02-23T23:28:22.585Z,100.83
2019-02-23T23:30:56.102Z,100.80
2019-02-23T23:33:31.016Z,99.50
2019-02-23T23:36:08.311Z,98.27
2019-02-23T23:38:43.470Z,105.27
2019-02-23T23:41:19.883Z,84.17
2019-02-23T23:43:55.060Z,92.10
2019-02-23T23:46:34.565Z,92.60
2019-02-23T23:49:08.063Z,88.30
2019-02-23T23:51:44.373Z,82.17
2019-02-23T23:54:19.881Z,84.63
2019-02-23T23:56:53.576Z,85.17
2019-02-23T23:59:34.081Z,79.87
